Terminal Aerodrome Forecast
Issued by NWS

Home | Current Version | Previous Version | Text Only | Print | Product List | Glossary On
Versions: 1 2 3 4 5 6 7 8 9 10 11 12 13 14 15 16 17 18 19 20 21 22 23 24 25 26 27 28 29 30 31 32 33 34 35 36 37 38 39 40
959
FTUS46 KLOX 231741 AAA
TAFLAX
TAF AMD
KLAX 231741Z 2318/2424 36012G22KT P6SM SCT050
     FM232000 27016G26KT P6SM SCT060
     FM240300 26010KT P6SM SKC
     FM240600 34007KT P6SM SKC
     FM241000 04006KT P6SM SKC
     FM242000 VRB03KT P6SM SKC
     FM242200 25008KT P6SM SKC=

USA.gov is the U.S. government's official web portal to all federal, state and local government web resources and services.